Map

Track Data

SID SEASON NUMBER BASIN SUBBASIN NAME ISO_TIME NATURE LAT LON WMO_WIND WMO_PRES WMO_AGENCY TRACK_TYPE DIST2LAND LANDFALL IFLAG USA_AGENCY USA_ATCF_ID USA_LAT USA_LON USA_RECORD USA_STATUS USA_WIND USA_PRES USA_SSHS USA_R34_NE USA_R34_SE USA_R34_SW USA_R34_NW USA_R50_NE USA_R50_SE USA_R50_SW USA_R50_NW USA_R64_NE USA_R64_SE USA_R64_SW USA_R64_NW USA_POCI USA_ROCI USA_RMW USA_EYE TOKYO_LAT TOKYO_LON TOKYO_GRADE TOKYO_WIND TOKYO_PRES TOKYO_R50_DIR TOKYO_R50_LONG TOKYO_R50_SHORT TOKYO_R30_DIR TOKYO_R30_LONG TOKYO_R30_SHORT TOKYO_LAND CMA_LAT CMA_LON CMA_CAT CMA_WIND CMA_PRES HKO_LAT HKO_LON HKO_CAT HKO_WIND HKO_PRES NEWDELHI_LAT NEWDELHI_LON NEWDELHI_GRADE NEWDELHI_WIND NEWDELHI_PRES NEWDELHI_CI NEWDELHI_DP NEWDELHI_POCI REUNION_LAT REUNION_LON REUNION_TYPE REUNION_WIND REUNION_PRES REUNION_TNUM REUNION_CI REUNION_RMW REUNION_R34_NE REUNION_R34_SE REUNION_R34_SW REUNION_R34_NW REUNION_R50_NE REUNION_R50_SE REUNION_R50_SW REUNION_R50_NW REUNION_R64_NE REUNION_R64_SE REUNION_R64_SW REUNION_R64_NW BOM_LAT BOM_LON BOM_TYPE BOM_WIND BOM_PRES BOM_TNUM BOM_CI BOM_RMW BOM_R34_NE BOM_R34_SE BOM_R34_SW BOM_R34_NW BOM_R50_NE BOM_R50_SE BOM_R50_SW BOM_R50_NW BOM_R64_NE BOM_R64_SE BOM_R64_SW BOM_R64_NW BOM_ROCI BOM_POCI BOM_EYE BOM_POS_METHOD BOM_PRES_METHOD NADI_LAT NADI_LON NADI_CAT NADI_WIND NADI_PRES WELLINGTON_LAT WELLINGTON_LON WELLINGTON_WIND WELLINGTON_PRES DS824_LAT DS824_LON DS824_STAGE DS824_WIND DS824_PRES TD9636_LAT TD9636_LON TD9636_STAGE TD9636_WIND TD9636_PRES TD9635_LAT TD9635_LON TD9635_WIND TD9635_PRES TD9635_ROCI NEUMANN_LAT NEUMANN_LON NEUMANN_CLASS NEUMANN_WIND NEUMANN_PRES MLC_LAT MLC_LON MLC_CLASS MLC_WIND MLC_PRES USA_GUST BOM_GUST BOM_GUST_PER REUNION_GUST REUNION_GUST_PER USA_SEAHGT USA_SEARAD_NE USA_SEARAD_SE USA_SEARAD_SW USA_SEARAD_NW STORM_SPEED STORM_DIR
1859070S05448 1859 8 SI MM NOT_NAMED 1859-03-10 18:00:00 NR -4.70000 88.0000 main 1192 1192 __________O___ -1 -4.70000 88.0000 7 2 0
1859070S05448 1859 8 SI MM NOT_NAMED 1859-03-10 21:00:00 NR -4.80624 88.0077 main 1200 1200 __________P___ -1 -4.80624 88.0077 7 2 175
1859070S05448 1859 8 SI MM NOT_NAMED 1859-03-11 00:00:00 NR -4.92999 88.0024 main 1207 1207 __________P___ -1 -4.92999 88.0024 7 3 188
1859070S05448 1859 8 SI MM NOT_NAMED 1859-03-11 03:00:00 NR -5.08874 87.9708 main 1223 1223 __________P___ -1 -5.08874 87.9708 7 4 195
1859070S05448 1859 8 SI MM NOT_NAMED 1859-03-11 06:00:00 NR -5.30000 87.9000 main 1247 1247 __________O___ -1 -5.30000 87.9000 7 5 201
1859070S05448 1859 8 SI MM NOT_NAMED 1859-03-11 09:00:00 NR -5.57315 87.7820 main 1278 1278 __________P___ -1 -5.57315 87.7820 7 6 205
1859070S05448 1859 8 SI MM NOT_NAMED 1859-03-11 12:00:00 NR -5.88504 87.6301 main 1318 1318 __________P___ -1 -5.88504 87.6301 7 7 207
1859070S05448 1859 8 SI MM NOT_NAMED 1859-03-11 15:00:00 NR -6.20441 87.4632 main 1350 1350 __________P___ -1 -6.20441 87.4632 7 7 208
1859070S05448 1859 8 SI MM NOT_NAMED 1859-03-11 18:00:00 NR -6.50000 87.3000 main 1388 1388 __________O___ -1 -6.50000 87.3000 7 5 210
1859070S05448 1859 8 SI MM NOT_NAMED 1859-03-11 21:00:00 NR -6.65152 87.1998 main 1407 1407 __________P___ -1 -6.65152 87.1998 7 4 215
1859070S05448 1859 8 SI MM NOT_NAMED 1859-03-12 00:00:00 NR -6.78743 87.1016 main 1422 1422 __________P___ -1 -6.78743 87.1016 7 4 214
1859070S05448 1859 8 SI MM NOT_NAMED 1859-03-12 03:00:00 NR -6.97962 86.9777 main 1442 1442 __________P___ -1 -6.97962 86.9777 7 6 210
1859070S05448 1859 8 SI MM NOT_NAMED 1859-03-12 06:00:00 NR -7.30000 86.8000 main 1476 1476 __________O___ -1 -7.30000 86.8000 7 10 207
1859070S05448 1859 8 SI MM NOT_NAMED 1859-03-12 09:00:00 NR -7.85481 86.5369 main 1537 1537 __________P___ -1 -7.85481 86.5369 7 14 205
1859070S05448 1859 8 SI MM NOT_NAMED 1859-03-12 12:00:00 NR -8.53773 86.2179 main 1599 1599 __________P___ -1 -8.53773 86.2179 7 16 205
1859070S05448 1859 8 SI MM NOT_NAMED 1859-03-12 15:00:00 NR -9.27676 85.8649 main 1672 1672 __________P___ -1 -9.27676 85.8649 7 16 206
1859070S05448 1859 8 SI MM NOT_NAMED 1859-03-12 18:00:00 NR -10.0000 85.5000 main 1749 1749 __________O___ -1 -10.0000 85.5000 7 15 208
1859070S05448 1859 8 SI MM NOT_NAMED 1859-03-12 21:00:00 NR -10.5670 85.1762 main 1813 1813 __________P___ -1 -10.5670 85.1762 7 13 210
1859070S05448 1859 8 SI MM NOT_NAMED 1859-03-13 00:00:00 NR -11.1122 84.8430 main 1880 1880 __________P___ -1 -11.1122 84.8430 7 13 211
1859070S05448 1859 8 SI MM NOT_NAMED 1859-03-13 03:00:00 NR -11.6763 84.4884 main 1944 1944 __________P___ -1 -11.6763 84.4884 7 14 211
1859070S05448 1859 8 SI MM NOT_NAMED 1859-03-13 06:00:00 NR -12.3000 84.1000 main 2018 2018 __________O___ -1 -12.3000 84.1000 7 16 211
1859070S05448 1859 8 SI MM NOT_NAMED 1859-03-13 09:00:00 NR -13.0476 83.6572 main 2099 2099 __________P___ -1 -13.0476 83.6572 7 18 210
1859070S05448 1859 8 SI MM NOT_NAMED 1859-03-13 12:00:00 NR -13.8553 83.1803 main 2202 2202 __________P___ -1 -13.8553 83.1803 7 19 210
1859070S05448 1859 8 SI MM NOT_NAMED 1859-03-13 15:00:00 NR -14.6852 82.6882 main 2300 2300 __________P___ -1 -14.6852 82.6882 7 19 210
1859070S05448 1859 8 SI MM NOT_NAMED 1859-03-13 18:00:00 NR -15.5000 82.2000 main 2397 2397 __________O___ -1 -15.5000 82.2000 7 18 210
1859070S05448 1859 8 SI MM NOT_NAMED 1859-03-13 21:00:00 NR -16.2503 81.7338 main 2489 2489 __________P___ -1 -16.2503 81.7338 7 17 211
1859070S05448 1859 8 SI MM NOT_NAMED 1859-03-14 00:00:00 NR -16.9796 81.2763 main 2501 2444 __________P___ -1 -16.9796 81.2763 7 17 211
1859070S05448 1859 8 SI MM NOT_NAMED 1859-03-14 03:00:00 NR -17.6941 80.8306 main 2433 2378 __________P___ -1 -17.6941 80.8306 7 17 210
1859070S05448 1859 8 SI MM NOT_NAMED 1859-03-14 06:00:00 NR -18.4000 80.4000 main 2378 2326 __________O___ -1 -18.4000 80.4000 7 17 209
1859070S05448 1859 8 SI MM NOT_NAMED 1859-03-14 09:00:00 NR -19.1393 79.9692 main 2326 2275 __________P___ -1 -19.1393 79.9692 7 17 209
1859070S05448 1859 8 SI MM NOT_NAMED 1859-03-14 12:00:00 NR -19.8671 79.5549 main 2275 2228 __________P___ -1 -19.8671 79.5549 7 16 208
1859070S05448 1859 8 SI MM NOT_NAMED 1859-03-14 15:00:00 NR -20.5614 79.1631 main 2227 2184 __________P___ -1 -20.5614 79.1631 7 15 208
1859070S05448 1859 8 SI MM NOT_NAMED 1859-03-14 18:00:00 NR -21.2000 78.8000 main 2184 2152 __________O___ -1 -21.2000 78.8000 7 14 208
1859070S05448 1859 8 SI MM NOT_NAMED 1859-03-14 21:00:00 NR -21.7679 78.4696 main 2152 2122 __________P___ -1 -21.7679 78.4696 7 12 209
1859070S05448 1859 8 SI MM NOT_NAMED 1859-03-15 00:00:00 NR -22.2777 78.1656 main 2123 2093 __________P___ -1 -22.2777 78.1656 7 11 209
1859070S05448 1859 8 SI MM NOT_NAMED 1859-03-15 03:00:00 NR -22.7487 77.8789 main 2094 2067 __________P___ -1 -22.7487 77.8789 7 11 209
1859070S05448 1859 8 SI MM NOT_NAMED 1859-03-15 06:00:00 NR -23.2000 77.6000 main 2068 __________O___ -1 -23.2000 77.6000 7 10 210

About IBTrACS Database

This database is a web-friendly format of International Best Track Archive for Climate Stewardship (IBTrACS), a global best track data archive curated by NOAA dating back to 1842.

Updated: 2021-12-01